Time;durP1;ratioP1;P1;durP2;ratioP2;P2;SDS_P1;SDS_P2;PMS_P1;PMS_P2;Temp;Humidity;BMP_temperature;BMP_pressure;BME280_temperature;BME280_humidity;BME280_pressure;Samples;Min_cycle;Max_cycle;Signal;HPM_P1;HPM_P2
2022/12/27 11:35:40;;;;;;;12.55;4.80;;;10.60;90.30;;;;;;1958409;73;25692;-44
2022/12/27 11:38:12;;;;;;;7.78;4.80;;;10.70;91.10;;;;;;1916512;74;21117;-45
2022/12/27 11:40:42;;;;;;;11.78;4.87;;;10.70;91.10;;;;;;1916111;74;21064;-45
2022/12/27 11:43:14;;;;;;;12.93;4.87;;;10.60;91.30;;;;;;1918012;75;21021;-46
2022/12/27 11:45:46;;;;;;;8.65;4.97;;;10.60;91.20;;;;;;1917745;75;21618;-45
2022/12/27 11:48:43;;;;;;;8.43;4.37;;;10.70;91.30;;;;;;1917452;74;21062;-46
2022/12/27 11:51:30;;;;;;;6.65;4.78;;;10.70;91.00;;;;;;1917819;75;21018;-46
2022/12/27 11:54:23;;;;;;;9.93;6.35;;;10.70;91.20;;;;;;1916440;74;21155;-47
2022/12/27 11:57:30;;;;;;;5.67;3.87;;;10.80;91.40;;;;;;1917275;74;21070;-45
2022/12/27 12:00:11;;;;;;;7.97;4.37;;;10.90;90.60;;;;;;1917829;75;21093;-45
2022/12/27 12:03:07;;;;;;;5.72;3.47;;;10.90;90.80;;;;;;1917527;75;21058;-46
2022/12/27 12:05:51;;;;;;;7.08;4.42;;;10.90;90.40;;;;;;1899958;73;21086;-44
2022/12/27 12:08:39;;;;;;;9.18;4.53;;;10.90;90.20;;;;;;1917200;74;21085;-45
2022/12/27 12:11:28;;;;;;;4.47;2.90;;;10.90;90.90;;;;;;1896977;75;21141;-49
2022/12/27 12:14:20;;;;;;;4.83;3.12;;;10.90;89.90;;;;;;1917766;75;21074;-50
2022/12/27 12:17:08;;;;;;;6.25;3.70;;;10.90;89.70;;;;;;1916395;74;21141;-45
2022/12/27 12:20:06;;;;;;;5.05;2.98;;;10.90;89.90;;;;;;1917785;75;21094;-46
2022/12/27 12:22:50;;;;;;;10.90;6.65;;;10.90;88.70;;;;;;1917227;74;21088;-47
2022/12/27 12:25:33;;;;;;;5.42;2.95;;;10.90;90.10;;;;;;1917654;75;21160;-50
2022/12/27 12:28:05;;;;;;;8.23;4.55;;;10.80;89.30;;;;;;1917959;75;21074;-49
2022/12/27 12:30:46;;;;;;;3.37;2.70;;;10.90;90.10;;;;;;1916396;74;21101;-47
2022/12/27 12:33:42;;;;;;;7.45;3.50;;;10.80;88.10;;;;;;1917429;74;20991;-48
2022/12/27 12:36:32;;;;;;;4.83;3.05;;;10.80;89.70;;;;;;1918334;75;21061;-51
2022/12/27 12:39:15;;;;;;;11.40;3.75;;;10.90;89.30;;;;;;1916863;74;21019;-54
2022/12/27 12:41:56;;;;;;;3.67;2.98;;;10.90;88.60;;;;;;1916591;75;21089;-54
2022/12/27 12:44:54;;;;;;;4.67;2.80;;;10.80;86.70;;;;;;1900104;75;21030;-52
2022/12/27 12:47:28;;;;;;;4.83;3.40;;;10.80;86.10;;;;;;1917740;74;21414;-52
2022/12/27 12:50:18;;;;;;;3.52;2.30;;;10.80;87.20;;;;;;1917813;75;21092;-51
2022/12/27 12:53:02;;;;;;;4.28;3.45;;;10.70;85.90;;;;;;1917745;75;21192;-50
2022/12/27 12:55:40;;;;;;;4.83;2.55;;;10.70;86.70;;;;;;1916828;74;21433;-50
2022/12/27 12:58:20;;;;;;;6.25;3.40;;;10.60;86.40;;;;;;1917040;74;21618;-50
2022/12/27 13:00:58;;;;;;;9.15;3.80;;;10.60;86.90;;;;;;1917124;74;21136;-49
2022/12/27 13:03:55;;;;;;;4.28;3.67;;;10.60;87.70;;;;;;1880929;74;21027;-51
2022/12/27 13:06:48;;;;;;;7.87;3.60;;;10.60;87.90;;;;;;1917633;75;21109;-49
2022/12/27 13:09:41;;;;;;;5.90;3.37;;;10.60;88.30;;;;;;1917703;75;21039;-50
2022/12/27 13:12:22;;;;;;;3.83;2.75;;;10.60;88.20;;;;;;1917158;74;21120;-49
2022/12/27 13:15:16;;;;;;;5.58;3.30;;;10.60;87.70;;;;;;1917385;74;21141;-52
2022/12/27 13:17:51;;;;;;;5.00;3.23;;;10.50;87.20;;;;;;1917830;75;21105;-51
2022/12/27 13:20:43;;;;;;;6.17;4.33;;;10.50;87.50;;;;;;1915423;74;21050;-51
2022/12/27 13:23:23;;;;;;;8.10;4.25;;;10.50;87.90;;;;;;1917751;75;21025;-53
2022/12/27 13:25:58;;;;;;;5.70;3.33;;;10.50;88.20;;;;;;1917645;75;21031;-50
2022/12/27 13:28:39;;;;;;;6.92;3.30;;;10.50;88.00;;;;;;1901541;74;21090;-50
2022/12/27 13:31:40;;;;;;;5.15;3.27;;;10.50;88.30;;;;;;1917114;74;21537;-50
2022/12/27 13:34:28;;;;;;;4.75;2.75;;;10.40;87.80;;;;;;1917225;74;21477;-51
2022/12/27 13:37:10;;;;;;;4.90;3.20;;;10.40;87.20;;;;;;1916706;74;21043;-50
2022/12/27 13:39:51;;;;;;;11.20;4.15;;;10.40;88.50;;;;;;1917305;75;21174;-49
2022/12/27 13:42:39;;;;;;;8.13;3.77;;;10.40;88.30;;;;;;1916277;74;21094;-51
2022/12/27 13:45:28;;;;;;;3.37;2.90;;;10.40;87.60;;;;;;1917023;74;21043;-50
2022/12/27 13:48:06;;;;;;;7.60;3.90;;;10.40;88.00;;;;;;1905271;75;21102;-52
2022/12/27 13:51:02;;;;;;;5.80;3.70;;;10.40;88.30;;;;;;1917244;75;20984;-52
2022/12/27 13:53:40;;;;;;;7.28;3.85;;;10.40;88.40;;;;;;1916894;75;21473;-51
2022/12/27 13:56:28;;;;;;;7.78;3.75;;;10.40;88.10;;;;;;1915580;74;21058;-49
2022/12/27 13:59:25;;;;;;;7.90;3.55;;;10.40;88.50;;;;;;1917355;74;21039;-53
2022/12/27 14:02:16;;;;;;;3.55;2.92;;;10.30;88.00;;;;;;1917545;75;20983;-52
2022/12/27 14:05:15;;;;;;;6.25;3.98;;;10.30;87.90;;;;;;1917511;75;21003;-50
2022/12/27 14:07:56;;;;;;;5.67;3.30;;;10.30;87.80;;;;;;1917439;75;21015;-51
2022/12/27 14:10:49;;;;;;;11.60;4.03;;;10.30;88.30;;;;;;1917151;74;21132;-53
2022/12/27 14:13:36;;;;;;;6.45;3.67;;;10.30;88.10;;;;;;1917410;75;21023;-51
2022/12/27 14:16:14;;;;;;;11.15;3.92;;;10.30;87.80;;;;;;1917363;75;21041;-49
2022/12/27 14:19:20;;;;;;;8.60;3.50;;;10.30;88.30;;;;;;1917529;74;21027;-52
2022/12/27 14:21:57;;;;;;;6.85;3.60;;;10.30;88.70;;;;;;1917693;75;21039;-51
2022/12/27 14:24:29;;;;;;;8.85;4.35;;;10.30;88.50;;;;;;1917325;74;21116;-50
2022/12/27 14:27:16;;;;;;;8.70;3.50;;;10.30;89.10;;;;;;1915276;74;21078;-48
2022/12/27 14:30:04;;;;;;;10.65;4.95;;;10.30;88.40;;;;;;1917469;75;20983;-52
2022/12/27 14:33:02;;;;;;;6.65;3.20;;;10.30;88.30;;;;;;1916418;74;21027;-52
2022/12/27 14:35:40;;;;;;;4.72;3.20;;;10.30;88.30;;;;;;1913199;75;21125;-51
2022/12/27 14:38:45;;;;;;;6.95;3.50;;;10.30;88.50;;;;;;1865484;74;21106;-52
2022/12/27 14:41:37;;;;;;;4.70;2.93;;;10.30;88.80;;;;;;1905475;75;21028;-50
2022/12/27 14:44:27;;;;;;;4.65;3.90;;;10.30;87.90;;;;;;1905353;75;21709;-51
2022/12/27 14:47:05;;;;;;;4.90;3.20;;;10.30;88.10;;;;;;1904749;74;21117;-49
2022/12/27 14:49:58;;;;;;;3.37;3.08;;;10.30;88.00;;;;;;1904925;74;21008;-50
2022/12/27 14:52:51;;;;;;;15.00;3.60;;;10.30;88.30;;;;;;1903048;74;21052;-52
2022/12/27 14:55:39;;;;;;;4.12;3.37;;;10.20;88.50;;;;;;1905216;75;21051;-49
2022/12/27 14:58:16;;;;;;;4.83;3.52;;;10.20;88.10;;;;;;1905263;75;21043;-52
2022/12/27 15:01:06;;;;;;;4.65;3.37;;;10.20;88.30;;;;;;1905288;75;21446;-52
2022/12/27 15:03:52;;;;;;;4.87;3.55;;;10.20;88.10;;;;;;1905347;75;21082;-50
2022/12/27 15:06:48;;;;;;;4.62;3.02;;;10.20;88.50;;;;;;1905503;75;20999;-49
2022/12/27 15:09:34;;;;;;;6.35;3.45;;;10.20;87.70;;;;;;1905225;75;21019;-49
2022/12/27 15:12:27;;;;;;;5.08;3.02;;;10.20;87.90;;;;;;1905236;74;21477;-50
2022/12/27 15:14:58;;;;;;;4.22;3.45;;;10.20;87.90;;;;;;1842321;78;21050;-54
2022/12/27 15:17:48;;;;;;;3.70;3.40;;;10.20;87.80;;;;;;1890581;74;21024;-52
2022/12/27 15:20:35;;;;;;;6.33;3.52;;;10.20;88.40;;;;;;1904659;74;21040;-50
2022/12/27 15:23:19;;;;;;;9.85;4.35;;;10.20;88.40;;;;;;1905221;75;21535;-49
2022/12/27 15:25:54;;;;;;;5.72;3.42;;;10.20;88.20;;;;;;1904970;74;21016;-50
2022/12/27 15:28:34;;;;;;;3.77;2.77;;;10.20;88.00;;;;;;1904956;74;21043;-50
2022/12/27 15:31:34;;;;;;;9.15;3.17;;;10.20;88.10;;;;;;1905190;75;21040;-48
2022/12/27 15:34:39;;;;;;;4.17;2.90;;;10.20;87.10;;;;;;1905188;75;21023;-49
2022/12/27 15:37:26;;;;;;;5.62;3.33;;;10.10;86.80;;;;;;1920634;74;21120;-50
2022/12/27 15:40:00;;;;;;;5.95;3.25;;;;;;;;;;1924675;74;21101;-53
2022/12/27 15:42:31;;;;;;;3.65;3.10;;;;;;;;;;1922977;74;21085;-49
2022/12/27 15:45:18;;;;;;;4.87;3.15;;;;;;;;;;1924754;74;21038;-49
2022/12/27 15:47:57;;;;;;;9.93;4.53;;;;;;;;;;1924522;74;21097;-49
2022/12/27 15:50:27;;;;;;;8.93;3.42;;;;;;;;;;1924331;74;21042;-50
2022/12/27 15:52:57;;;;;;;3.58;3.02;;;;;;;;;;1924555;74;20975;-51
2022/12/27 15:55:30;;;;;;;13.53;3.77;;;;;;;;;;1924156;74;20991;-49
2022/12/27 15:58:04;;;;;;;5.08;3.15;;;;;;;;;;1923465;74;21072;-49
2022/12/27 16:00:33;;;;;;;3.50;3.10;;;;;;;;;;1924868;74;21049;-49
2022/12/27 16:03:03;;;;;;;6.17;3.10;;;;;;;;;;1924540;74;21064;-51
2022/12/27 16:05:42;;;;;;;4.75;3.50;;;;;;;;;;1924557;74;21096;-48
2022/12/27 16:08:13;;;;;;;5.10;3.22;;;;;;;;;;1924579;74;21070;-52
2022/12/27 16:10:44;;;;;;;4.70;3.55;;;;;;;;;;1924579;74;21034;-49
2022/12/27 16:13:17;;;;;;;3.52;2.45;;;;;;;;;;1924526;74;21034;-50
2022/12/27 16:15:48;;;;;;;4.25;2.50;;;;;;;;;;1924544;74;21074;-49
2022/12/27 16:18:18;;;;;;;4.40;2.87;;;;;;;;;;1924582;74;21051;-52
2022/12/27 16:21:00;;;;;;;4.90;3.02;;;;;;;;;;1924618;74;20979;-49
2022/12/27 16:23:32;;;;;;;2.98;2.55;;;;;;;;;;1924716;74;21540;-50
2022/12/27 16:26:02;;;;;;;4.90;2.80;;;;;;;;;;1924792;74;21085;-51
2022/12/27 16:28:32;;;;;;;3.90;2.62;;;;;;;;;;1924797;74;21086;-48
2022/12/27 16:31:01;;;;;;;3.62;3.02;;;;;;;;;;1924804;74;21059;-49
2022/12/27 16:33:32;;;;;;;4.40;1.95;;;;;;;;;;1924730;74;21023;-50
2022/12/27 16:36:14;;;;;;;6.90;3.42;;;;;;;;;;1921345;74;21085;-52
2022/12/27 16:38:46;;;;;;;4.55;3.87;;;;;;;;;;1905360;75;21078;-50
2022/12/27 16:41:22;;;;;;;5.12;3.42;;;;;;;;;;1905373;75;21475;-48
2022/12/27 16:44:00;;;;;;;4.17;2.90;;;;;;;;;;1904167;74;21125;-48
2022/12/27 16:46:47;;;;;;;3.90;2.98;;;;;;;;;;1905318;75;21012;-48
2022/12/27 16:49:21;;;;;;;3.27;2.30;;;;;;;;;;1905266;75;21090;-50
2022/12/27 16:51:51;;;;;;;4.72;2.98;;;;;;;;;;1904657;74;21489;-50
2022/12/27 16:54:24;;;;;;;3.90;2.67;;;;;;;;;;1905407;75;21005;-52
2022/12/27 16:56:54;;;;;;;4.72;3.10;;;;;;;;;;1905469;75;21070;-49
2022/12/27 16:59:41;;;;;;;3.12;2.72;;;;;;;;;;1903488;75;21016;-49
2022/12/27 17:02:27;;;;;;;4.17;2.85;;;;;;;;;;1905506;75;21027;-52
2022/12/27 17:04:58;;;;;;;3.98;3.10;;;;;;;;;;1905283;75;21031;-49
2022/12/27 17:07:28;;;;;;;4.17;2.75;;;;;;;;;;1905526;75;21454;-52
2022/12/27 17:09:58;;;;;;;9.43;2.58;;;;;;;;;;1901325;74;21125;-50
2022/12/27 17:12:27;;;;;;;3.85;2.75;;;;;;;;;;1903351;74;21077;-50
2022/12/27 17:14:57;;;;;;;5.95;3.80;;;;;;;;;;1905242;75;20999;-50
2022/12/27 17:17:25;;;;;;;7.25;3.00;;;;;;;;;;1905093;74;21007;-49
2022/12/27 17:19:55;;;;;;;7.10;3.60;;;;;;;;;;1905301;75;21093;-50
2022/12/27 17:22:26;;;;;;;5.17;2.62;;;;;;;;;;1905308;75;21097;-48
2022/12/27 17:24:58;;;;;;;3.65;2.65;;;;;;;;;;1905317;75;21035;-50
2022/12/27 17:27:28;;;;;;;5.92;2.85;;;;;;;;;;1905277;75;21035;-49
2022/12/27 17:30:13;;;;;;;4.62;3.30;;;;;;;;;;1905275;75;20999;-50
2022/12/27 17:33:01;;;;;;;4.35;2.95;;;;;;;;;;1905529;75;21047;-48
2022/12/27 17:35:34;;;;;;;5.85;3.27;;;;;;;;;;1905038;74;21015;-49
2022/12/27 17:38:16;;;;;;;3.83;3.00;;;;;;;;;;1921373;74;21046;-50
2022/12/27 17:40:49;;;;;;;2.75;2.40;;;;;;;;;;1924896;74;21007;-48
2022/12/27 17:46:22;;;;;;;5.45;3.20;;;;;;;;;;1924817;74;21535;-50
2022/12/27 17:48:54;;;;;;;3.25;2.65;;;;;;;;;;1924608;74;21156;-50
2022/12/27 17:51:24;;;;;;;3.58;2.83;;;;;;;;;;1924707;74;21035;-50
2022/12/27 17:59:32;;;;;;;6.62;3.10;;;;;;;;;;1924714;74;21145;-49
2022/12/27 18:02:08;;;;;;;3.08;2.62;;;;;;;;;;1924639;74;21058;-52
2022/12/27 18:04:38;;;;;;;4.17;2.52;;;;;;;;;;1923905;74;20986;-49
2022/12/27 18:07:08;;;;;;;6.55;2.90;;;;;;;;;;1924730;74;21006;-48
2022/12/27 18:09:50;;;;;;;4.28;2.98;;;;;;;;;;1924629;74;20979;-53
2022/12/27 18:12:23;;;;;;;3.98;3.00;;;;;;;;;;1924736;74;21054;-52
2022/12/27 18:14:53;;;;;;;5.47;2.55;;;;;;;;;;1924646;74;21043;-49
2022/12/27 18:17:23;;;;;;;6.00;2.80;;;;;;;;;;1903905;74;21124;-48
2022/12/27 18:19:53;;;;;;;3.72;2.95;;;;;;;;;;1924701;74;21054;-50
2022/12/27 18:22:22;;;;;;;4.22;3.12;;;;;;;;;;1924648;74;21043;-50
2022/12/27 18:24:50;;;;;;;4.97;2.70;;;;;;;;;;1924664;74;21031;-49
2022/12/27 18:27:20;;;;;;;4.75;2.60;;;;;;;;;;1924609;74;21034;-50
2022/12/27 18:29:49;;;;;;;4.75;2.72;;;;;;;;;;1924698;74;20983;-49
2022/12/27 18:32:19;;;;;;;9.55;3.70;;;;;;;;;;1924736;74;21007;-50
2022/12/27 18:34:55;;;;;;;3.62;2.90;;;;;;;;;;1924649;74;21085;-49
2022/12/27 18:37:24;;;;;;;3.10;2.60;;;;;;;;;;1917535;74;21031;-51
2022/12/27 18:40:00;;;;;;;4.22;2.70;;;;;;;;;;1905384;75;21085;-50
2022/12/27 18:42:36;;;;;;;5.20;3.10;;;;;;;;;;1905312;75;20974;-48
2022/12/27 18:45:06;;;;;;;9.48;3.37;;;;;;;;;;1904287;74;21047;-48
2022/12/27 18:47:36;;;;;;;5.15;2.70;;;;;;;;;;1905240;75;21004;-49
2022/12/27 18:50:05;;;;;;;4.83;3.30;;;;;;;;;;1905378;75;21007;-48
2022/12/27 18:52:37;;;;;;;3.17;2.60;;;;;;;;;;1905219;75;20979;-52
2022/12/27 18:55:07;;;;;;;3.98;2.77;;;;;;;;;;1905230;75;21114;-49
2022/12/27 18:57:36;;;;;;;3.45;2.72;;;;;;;;;;1904853;74;21061;-50
2022/12/27 19:00:16;;;;;;;5.35;2.20;;;;;;;;;;1905372;75;21004;-49
2022/12/27 19:02:43;;;;;;;5.42;2.52;;;;;;;;;;1904689;75;21481;-53
2022/12/27 19:05:16;;;;;;;8.78;1.87;;;;;;;;;;1905265;75;21071;-50
2022/12/27 19:07:45;;;;;;;3.12;2.83;;;;;;;;;;1904728;74;21007;-50
2022/12/27 19:10:20;;;;;;;3.47;2.85;;;;;;;;;;1905296;75;21130;-48
2022/12/27 19:12:51;;;;;;;4.58;1.90;;;;;;;;;;1905235;75;21457;-49
2022/12/27 19:15:21;;;;;;;3.72;2.45;;;;;;;;;;1905192;75;21077;-51
2022/12/27 19:17:52;;;;;;;5.72;2.52;;;;;;;;;;1905241;75;21105;-49
2022/12/27 19:20:22;;;;;;;4.20;2.62;;;;;;;;;;1905318;75;21003;-48
2022/12/27 19:22:52;;;;;;;2.15;1.95;;;;;;;;;;1904400;75;21047;-49
2022/12/27 19:25:28;;;;;;;5.35;2.33;;;;;;;;;;1905257;75;21003;-48
2022/12/27 19:28:01;;;;;;;4.12;2.40;;;;;;;;;;1905214;75;21031;-50
2022/12/27 19:30:37;;;;;;;3.52;2.20;;;;;;;;;;1905254;75;21016;-51
2022/12/27 19:33:07;;;;;;;3.72;3.15;;;;;;;;;;1905157;75;21039;-49
2022/12/27 19:35:35;;;;;;;2.77;2.05;;;;;;;;;;1905226;75;20983;-53
2022/12/27 19:38:04;;;;;;;7.37;2.40;;;;;;;;;;1905302;74;21052;-49
2022/12/27 19:40:32;;;;;;;4.97;2.50;;;;;;;;;;1905251;75;21008;-48
2022/12/27 19:43:01;;;;;;;2.75;2.40;;;;;;;;;;1905241;75;21302;-51
2022/12/27 19:45:29;;;;;;;7.67;2.70;;;;;;;;;;1905189;75;21020;-48
2022/12/27 19:47:58;;;;;;;2.95;2.55;;;;;;;;;;1905316;75;21058;-49
2022/12/27 19:50:27;;;;;;;2.33;2.12;;;;;;;;;;1905228;75;20992;-51
2022/12/27 19:52:55;;;;;;;3.50;2.80;;;;;;;;;;1905163;75;21028;-51
2022/12/27 19:55:27;;;;;;;2.92;2.42;;;;;;;;;;1905221;75;21032;-50
2022/12/27 19:57:55;;;;;;;3.17;2.55;;;;;;;;;;1905316;75;21085;-49
2022/12/27 20:00:24;;;;;;;2.52;2.00;;;;;;;;;;1905353;75;21015;-48
2022/12/27 20:02:52;;;;;;;6.15;2.52;;;;;;;;;;1905335;75;21023;-49
2022/12/27 20:05:21;;;;;;;2.10;1.75;;;;;;;;;;1905541;75;21055;-48
2022/12/27 20:07:49;;;;;;;4.30;1.92;;;;;;;;;;1905424;75;21036;-52
2022/12/27 20:10:20;;;;;;;3.25;1.90;;;;;;;;;;1905138;75;21035;-51
2022/12/27 20:12:48;;;;;;;2.83;2.42;;;;;;;;;;1905313;75;21043;-50
2022/12/27 20:15:17;;;;;;;2.25;1.90;;;;;;;;;;1905288;75;21118;-48
2022/12/27 20:17:46;;;;;;;3.10;2.20;;;;;;;;;;1905376;75;21032;-48
2022/12/27 20:20:14;;;;;;;2.62;2.30;;;;;;;;;;1905333;75;21031;-49
2022/12/27 20:22:42;;;;;;;3.40;1.95;;;;;;;;;;1905412;75;21066;-50
2022/12/27 20:25:11;;;;;;;2.65;2.10;;;;;;;;;;1905286;75;21069;-52
2022/12/27 20:27:44;;;;;;;4.28;2.12;;;;;;;;;;1905410;75;20979;-49
2022/12/27 20:30:10;;;;;;;5.70;2.42;;;;;;;;;;1903192;74;21532;-49
2022/12/27 20:32:39;;;;;;;3.20;2.42;;;;;;;;;;1905315;75;21040;-49
2022/12/27 20:35:08;;;;;;;2.95;2.15;;;;;;;;;;1905299;75;21097;-52
2022/12/27 20:37:36;;;;;;;4.62;2.37;;;;;;;;;;1905297;74;21077;-49
2022/12/27 20:40:06;;;;;;;3.62;2.17;;;;;;;;;;1905401;75;21073;-52
2022/12/27 20:42:34;;;;;;;2.80;2.33;;;;;;;;;;1905499;74;21103;-51
2022/12/27 20:45:03;;;;;;;3.15;2.15;;;;;;;;;;1905435;75;21027;-48
2022/12/27 20:47:32;;;;;;;4.92;2.58;;;;;;;;;;1905402;75;21140;-50
2022/12/27 20:50:01;;;;;;;2.27;2.05;;;;;;;;;;1905382;75;21031;-49
2022/12/27 20:52:29;;;;;;;2.45;2.22;;;;;;;;;;1905384;75;21074;-50
2022/12/27 20:54:58;;;;;;;3.77;3.12;;;;;;;;;;1905376;75;21035;-49
2022/12/27 20:57:27;;;;;;;2.87;2.30;;;;;;;;;;1905349;75;21032;-50
2022/12/27 20:59:55;;;;;;;4.30;2.47;;;;;;;;;;1905430;75;21008;-51
2022/12/27 21:02:24;;;;;;;3.10;2.77;;;;;;;;;;1905525;75;21023;-48
2022/12/27 21:04:52;;;;;;;3.45;2.67;;;;;;;;;;1905289;75;21059;-49
2022/12/27 21:07:21;;;;;;;3.58;2.65;;;;;;;;;;1905264;75;21011;-49
2022/12/27 21:09:50;;;;;;;3.70;2.22;;;;;;;;;;1905393;75;21077;-51
2022/12/27 21:12:18;;;;;;;4.00;2.33;;;;;;;;;;1905392;75;21003;-50
2022/12/27 21:14:48;;;;;;;11.22;2.90;;;;;;;;;;1905288;75;21085;-48
2022/12/27 21:17:17;;;;;;;4.47;2.72;;;;;;;;;;1905305;75;21069;-49
2022/12/27 21:19:45;;;;;;;2.17;1.47;;;;;;;;;;1905332;75;21012;-49
2022/12/27 21:22:14;;;;;;;3.72;2.45;;;;;;;;;;1905415;75;21077;-49
2022/12/27 21:24:43;;;;;;;5.72;2.77;;;;;;;;;;1905305;75;21032;-48
2022/12/27 21:27:11;;;;;;;3.92;2.70;;;;;;;;;;1905251;75;21270;-49
2022/12/27 21:29:40;;;;;;;4.60;2.85;;;;;;;;;;1905213;75;21090;-50
2022/12/27 21:32:09;;;;;;;5.35;3.08;;;;;;;;;;1905317;75;21089;-49
2022/12/27 21:34:38;;;;;;;3.87;2.62;;;;;;;;;;1905348;75;21019;-49
2022/12/27 21:37:07;;;;;;;1.92;1.62;;;;;;;;;;1905251;75;21011;-50
2022/12/27 21:39:35;;;;;;;5.90;3.75;;;;;;;;;;1905307;75;21039;-50
2022/12/27 21:42:04;;;;;;;4.65;2.37;;;;;;;;;;1905296;75;21039;-49
2022/12/27 21:44:35;;;;;;;3.00;2.10;;;;;;;;;;1905387;75;21015;-48
2022/12/27 21:47:03;;;;;;;2.55;2.00;;;;;;;;;;1905239;75;21478;-49
2022/12/27 21:49:33;;;;;;;5.47;2.27;;;;;;;;;;1905442;75;21100;-50
2022/12/27 21:52:02;;;;;;;2.20;1.92;;;;;;;;;;1905270;75;21057;-49
2022/12/27 21:54:30;;;;;;;3.65;2.40;;;;;;;;;;1905276;75;21085;-52
2022/12/27 21:56:59;;;;;;;2.33;1.77;;;;;;;;;;1905204;75;21105;-50
2022/12/27 21:59:27;;;;;;;4.20;2.20;;;;;;;;;;1905298;75;21007;-49
2022/12/27 22:01:56;;;;;;;4.22;1.80;;;;;;;;;;1905374;75;21066;-50
2022/12/27 22:04:25;;;;;;;3.42;1.80;;;;;;;;;;1905421;75;21073;-49
2022/12/27 22:06:53;;;;;;;3.12;1.90;;;;;;;;;;1905262;75;21007;-50
2022/12/27 22:09:22;;;;;;;2.22;1.45;;;;;;;;;;1905190;75;21087;-49
2022/12/27 22:11:51;;;;;;;2.35;1.87;;;;;;;;;;1905246;75;21008;-49
2022/12/27 22:14:19;;;;;;;2.22;1.90;;;;;;;;;;1905222;75;21101;-49
2022/12/27 22:16:48;;;;;;;3.25;1.80;;;;;;;;;;1905243;75;21085;-50
2022/12/27 22:19:16;;;;;;;4.33;2.30;;;;;;;;;;1905206;75;21015;-52
2022/12/27 22:21:45;;;;;;;2.30;1.82;;;;;;;;;;1905240;75;21061;-48
2022/12/27 22:24:18;;;;;;;3.58;2.15;;;;;;;;;;1905280;75;21008;-47
2022/12/27 22:26:44;;;;;;;4.15;1.90;;;;;;;;;;1905090;75;21441;-50
2022/12/27 22:29:12;;;;;;;2.55;1.77;;;;;;;;;;1905304;75;21087;-52
2022/12/27 22:31:41;;;;;;;3.67;2.10;;;;;;;;;;1905343;75;21035;-52
2022/12/27 22:34:10;;;;;;;3.22;2.02;;;;;;;;;;1905341;75;21091;-48
2022/12/27 22:36:38;;;;;;;4.22;1.98;;;;;;;;;;1905323;75;21035;-48
2022/12/27 22:39:07;;;;;;;2.17;1.92;;;;;;;;;;1905291;75;21027;-49
2022/12/27 22:41:36;;;;;;;2.42;1.67;;;;;;;;;;1905338;74;21024;-49
2022/12/27 22:44:06;;;;;;;4.37;2.12;;;;;;;;;;1905287;75;21036;-50
2022/12/27 22:46:35;;;;;;;1.70;1.40;;;;;;;;;;1905358;75;21027;-52
2022/12/27 22:49:04;;;;;;;2.08;1.55;;;;;;;;;;1905236;75;21546;-49
2022/12/27 22:51:34;;;;;;;1.47;1.25;;;;;;;;;;1905252;75;21016;-48
2022/12/27 22:54:03;;;;;;;2.10;1.85;;;;;;;;;;1905203;75;21615;-50
2022/12/27 22:56:33;;;;;;;3.30;1.98;;;;;;;;;;1905225;75;21028;-49
2022/12/27 22:59:01;;;;;;;2.70;1.70;;;;;;;;;;1905121;74;21015;-51
2022/12/27 23:01:31;;;;;;;3.08;1.62;;;;;;;;;;1905229;75;21075;-48
2022/12/27 23:04:01;;;;;;;1.62;1.30;;;;;;;;;;1905305;75;21062;-50
2022/12/27 23:06:30;;;;;;;3.08;1.52;;;;;;;;;;1905325;75;21563;-50
2022/12/27 23:08:59;;;;;;;2.55;1.75;;;;;;;;;;1905379;75;21070;-49
2022/12/27 23:11:29;;;;;;;2.30;1.75;;;;;;;;;;1905204;75;21016;-48
2022/12/27 23:13:58;;;;;;;2.12;1.60;;;;;;;;;;1905169;75;21151;-51
2022/12/27 23:16:27;;;;;;;2.87;1.77;;;;;;;;;;1905224;75;21008;-49
2022/12/27 23:18:56;;;;;;;1.70;1.60;;;;;;;;;;1905359;75;21023;-50
2022/12/27 23:21:25;;;;;;;2.60;2.00;;;;;;;;;;1905236;75;21091;-49
2022/12/27 23:23:53;;;;;;;2.60;1.90;;;;;;;;;;1905223;75;21032;-52
2022/12/27 23:26:22;;;;;;;2.15;1.25;;;;;;;;;;1905313;75;21043;-50
2022/12/27 23:28:52;;;;;;;2.05;1.60;;;;;;;;;;1905279;75;21124;-51
2022/12/27 23:31:22;;;;;;;3.25;1.90;;;;;;;;;;1905305;75;21039;-49
2022/12/27 23:33:51;;;;;;;3.67;1.90;;;;;;;;;;1905275;75;21193;-50
2022/12/27 23:36:20;;;;;;;4.10;1.98;;;;;;;;;;1905234;75;21165;-49
2022/12/27 23:38:48;;;;;;;3.60;1.92;;;;;;;;;;1905157;75;21266;-49
2022/12/27 23:41:24;;;;;;;3.60;2.02;;;;;;;;;;1905362;75;21107;-51
2022/12/27 23:43:53;;;;;;;1.98;1.65;;;;;;;;;;1905389;74;21149;-49
2022/12/27 23:46:23;;;;;;;3.42;2.22;;;;;;;;;;1905216;75;21148;-50
2022/12/27 23:48:52;;;;;;;5.17;1.85;;;;;;;;;;1905310;75;21081;-49
2022/12/27 23:51:21;;;;;;;3.02;1.87;;;;;;;;;;1905231;75;21210;-48
2022/12/27 23:53:50;;;;;;;3.02;1.72;;;;;;;;;;1905160;75;21212;-51
2022/12/27 23:56:26;;;;;;;4.92;2.40;;;;;;;;;;1905167;75;21649;-49
2022/12/27 23:58:55;;;;;;;4.53;2.25;;;;;;;;;;1904237;75;21024;-52
